Canefield Airport

Partly cloudy
31oC (88oF)

Partly cloudy


Winds: North westerly @ 04kts / 07km/h

Humidity: 74%

Barometric Pressure: 1011 mb

Accumulated Rainfall for October: 40.8 mm

Updated: 14:00 local time (18:00 UTC)

Douglas-Charles Airport

Cloudy with adjacent showers
31oC (88oF)

Cloudy with adjacent showers


Winds: East south easterly @ 07kts / 13km/h

Humidity: 64%

Barometric Pressure: 1013 mb

Accumulated Rainfall for October: 23.7 mm

Updated: 14:00 local time (18:00 UTC)

Satellite Imagery

Satellite Imagery
Click image for larger view. (Source: National Hurricane Center).

Aviation Routine Report (METAR)

Douglas-Charles: METAR TDPD 141800Z 12007KT 9999 SCT016 SCT///CB 31/24 Q1013=
Canefield: METAR TDCF 141800Z 32004KT 9999 SCT020 31/26 Q1011=